createdAt,value
2022-10-08T00:03:53.209Z,58.25
2022-10-08T00:07:50.421Z,58.02
2022-10-08T00:11:47.360Z,57.63
2022-10-08T00:15:44.986Z,58.05
2022-10-08T00:19:42.251Z,57.89
2022-10-08T00:23:39.218Z,58.27
2022-10-08T00:27:37.201Z,58.56
2022-10-08T00:31:38.407Z,58.12
2022-10-08T00:35:40.570Z,58.19
2022-10-08T00:39:37.654Z,58.19
2022-10-08T00:43:48.659Z,58.74
2022-10-08T00:47:48.927Z,59.35
2022-10-08T00:51:55.858Z,59.16
2022-10-08T00:55:52.839Z,59.05
2022-10-08T00:59:49.973Z,58.78
2022-10-08T01:03:46.931Z,58.96
2022-10-08T01:08:05.681Z,59.52
2022-10-08T01:12:09.079Z,61.03
2022-10-08T01:16:33.688Z,61.71
2022-10-08T01:21:10.122Z,61.56
2022-10-08T01:25:41.057Z,61.83
2022-10-08T01:29:48.990Z,61.90
2022-10-08T01:34:03.645Z,62.54
2022-10-08T01:38:07.238Z,61.61
2022-10-08T01:42:09.058Z,60.72
2022-10-08T01:46:24.544Z,60.33
2022-10-08T01:50:37.014Z,61.07
2022-10-08T01:54:37.400Z,60.63
2022-10-08T01:59:00.330Z,61.00
2022-10-08T02:02:57.330Z,62.59
2022-10-08T02:06:57.984Z,62.94
2022-10-08T02:10:54.993Z,62.39
2022-10-08T02:14:55.817Z,60.86
2022-10-08T02:19:05.732Z,60.46
2022-10-08T02:23:17.209Z,59.93
2022-10-08T02:27:17.312Z,60.11
2022-10-08T02:31:33.353Z,59.46
2022-10-08T02:35:46.030Z,60.97
2022-10-08T02:39:51.233Z,61.39
2022-10-08T02:43:52.001Z,61.17
2022-10-08T02:47:56.794Z,61.16
2022-10-08T02:51:57.388Z,61.26
2022-10-08T02:56:08.423Z,61.15
2022-10-08T03:00:07.593Z,61.42
2022-10-08T03:04:22.008Z,60.87
2022-10-08T03:08:21.459Z,60.42
2022-10-08T03:12:19.346Z,60.83
2022-10-08T03:16:22.582Z,60.42
2022-10-08T03:20:20.046Z,60.68
2022-10-08T03:24:17.034Z,60.14
2022-10-08T03:28:14.155Z,60.53
2022-10-08T03:32:11.186Z,60.27
2022-10-08T03:36:08.260Z,61.14
2022-10-08T03:40:05.907Z,61.37
2022-10-08T03:44:02.876Z,61.46
2022-10-08T03:47:59.816Z,61.12
2022-10-08T03:51:56.806Z,60.98
2022-10-08T03:55:54.641Z,61.79
2022-10-08T03:59:51.660Z,61.99
2022-10-08T04:03:48.933Z,62.05
2022-10-08T04:07:45.919Z,61.30
2022-10-08T04:11:43.032Z,61.46
2022-10-08T04:15:40.074Z,62.09
2022-10-08T04:19:37.109Z,61.69
2022-10-08T04:23:36.613Z,61.34
2022-10-08T04:27:33.641Z,61.44
2022-10-08T04:31:30.830Z,61.57
2022-10-08T04:35:27.814Z,61.79
2022-10-08T04:39:24.826Z,61.48
2022-10-08T04:43:22.564Z,61.46
2022-10-08T04:47:22.012Z,61.73
2022-10-08T04:51:21.096Z,61.51
2022-10-08T04:55:18.188Z,61.80
2022-10-08T04:59:15.252Z,61.40
2022-10-08T05:03:12.278Z,61.00
2022-10-08T05:07:09.255Z,60.60
2022-10-08T05:11:06.830Z,61.48
2022-10-08T05:15:04.424Z,61.50
2022-10-08T05:19:01.448Z,61.73
2022-10-08T05:22:58.369Z,61.39
2022-10-08T05:26:59.283Z,62.15
2022-10-08T05:31:01.396Z,62.42
2022-10-08T05:34:58.935Z,61.94
2022-10-08T05:38:58.996Z,62.65
2022-10-08T05:42:56.626Z,62.54
2022-10-08T05:46:53.665Z,62.50
2022-10-08T05:50:50.682Z,61.60
2022-10-08T05:54:47.646Z,61.50
2022-10-08T05:58:46.178Z,61.95
2022-10-08T06:02:43.259Z,61.70
2022-10-08T06:06:43.518Z,61.83
2022-10-08T06:10:52.698Z,61.56
2022-10-08T06:14:49.783Z,61.27
2022-10-08T06:18:46.853Z,61.44
2022-10-08T06:22:43.841Z,61.30
2022-10-08T06:26:43.648Z,61.28
2022-10-08T06:30:42.505Z,61.06
2022-10-08T06:34:39.488Z,61.61
2022-10-08T06:38:36.544Z,60.98
2022-10-08T06:42:33.507Z,60.17
2022-10-08T06:46:34.227Z,59.62
2022-10-08T06:50:31.351Z,59.31
2022-10-08T06:54:28.449Z,58.74
2022-10-08T06:58:26.313Z,58.61
2022-10-08T07:02:23.742Z,58.86
2022-10-08T07:06:21.428Z,58.21
2022-10-08T07:10:18.695Z,58.37
2022-10-08T07:14:15.803Z,58.12
2022-10-08T07:18:12.986Z,57.52
2022-10-08T07:22:10.336Z,57.79
2022-10-08T07:26:20.186Z,57.72
2022-10-08T07:30:17.360Z,57.78
2022-10-08T07:34:16.890Z,57.93
2022-10-08T07:38:18.805Z,55.74
2022-10-08T07:42:16.091Z,56.24
2022-10-08T07:46:14.293Z,55.10
2022-10-08T07:50:11.577Z,54.59
2022-10-08T07:54:14.136Z,55.03
2022-10-08T07:58:11.304Z,54.90
2022-10-08T08:02:09.933Z,55.10
2022-10-08T08:06:12.238Z,52.73
2022-10-08T08:10:09.536Z,52.53
2022-10-08T08:14:07.460Z,52.42
2022-10-08T08:18:04.655Z,52.31
2022-10-08T08:22:01.911Z,51.05
2022-10-08T08:26:04.402Z,51.34
2022-10-08T08:30:01.584Z,52.01
2022-10-08T08:34:04.013Z,51.48
2022-10-08T08:38:00.959Z,50.97
2022-10-08T08:42:22.624Z,50.19
2022-10-08T08:46:21.891Z,49.95
2022-10-08T08:50:48.896Z,48.52
2022-10-08T08:54:55.472Z,46.86
2022-10-08T08:59:13.716Z,43.99
2022-10-08T09:03:34.811Z,44.13
2022-10-08T09:07:51.680Z,44.70
2022-10-08T09:11:49.380Z,45.64
2022-10-08T09:15:47.145Z,46.09
2022-10-08T09:19:45.075Z,46.55
2022-10-08T09:23:42.663Z,46.46
2022-10-08T09:27:45.491Z,45.77
2022-10-08T09:31:49.709Z,45.05
2022-10-08T09:35:52.068Z,44.16
2022-10-08T09:40:19.670Z,42.49
2022-10-08T09:44:23.692Z,41.37
2022-10-08T09:48:24.177Z,42.64
2022-10-08T09:52:26.994Z,43.05
2022-10-08T09:56:29.556Z,44.14
2022-10-08T10:00:35.744Z,45.00
2022-10-08T10:04:38.707Z,44.91
2022-10-08T10:08:50.564Z,43.15
2022-10-08T10:13:06.564Z,42.36
2022-10-08T10:17:15.084Z,42.50
2022-10-08T10:21:23.219Z,41.51
2022-10-08T10:25:50.220Z,40.65
2022-10-08T10:30:19.919Z,41.00
2022-10-08T10:34:28.914Z,42.41
2022-10-08T10:38:31.035Z,41.56
2022-10-08T10:42:47.222Z,41.38
2022-10-08T10:46:52.871Z,41.11
2022-10-08T10:51:07.237Z,40.28
2022-10-08T10:55:38.473Z,40.18
2022-10-08T11:00:00.400Z,39.57
2022-10-08T11:04:23.940Z,38.58
2022-10-08T11:08:49.231Z,36.76
2022-10-08T11:12:54.001Z,37.03
2022-10-08T11:17:19.916Z,35.92
2022-10-08T11:21:39.290Z,35.76
2022-10-08T11:26:14.966Z,36.03
2022-10-08T11:30:17.817Z,37.46
2022-10-08T11:34:37.563Z,35.97
2022-10-08T11:38:45.605Z,36.24
2022-10-08T11:43:08.350Z,35.66
2022-10-08T11:47:42.572Z,34.45
2022-10-08T11:51:53.566Z,34.35
2022-10-08T11:55:59.466Z,33.24
2022-10-08T12:00:34.989Z,33.22
2022-10-08T12:04:36.728Z,30.73
2022-10-08T12:08:51.763Z,28.86
2022-10-08T12:12:52.622Z,27.88
2022-10-08T12:16:55.473Z,27.99
2022-10-08T12:21:17.443Z,28.38
2022-10-08T12:25:59.504Z,28.91
2022-10-08T12:30:03.256Z,28.09
2022-10-08T12:34:17.680Z,27.87
2022-10-08T12:38:45.207Z,26.71
2022-10-08T12:42:42.507Z,26.70
2022-10-08T12:47:05.274Z,26.83
2022-10-08T12:51:02.552Z,26.65
2022-10-08T12:55:04.190Z,28.04
2022-10-08T12:59:04.856Z,28.48
2022-10-08T13:03:11.967Z,28.18
2022-10-08T13:07:28.308Z,29.45
2022-10-08T13:11:27.607Z,28.73
2022-10-08T13:15:26.252Z,28.54
2022-10-08T13:19:41.763Z,27.78
2022-10-08T13:23:41.466Z,27.46
2022-10-08T13:27:40.288Z,27.97
2022-10-08T13:31:37.455Z,29.14
2022-10-08T13:35:34.567Z,29.82
2022-10-08T13:39:38.910Z,31.53
2022-10-08T13:43:35.954Z,31.93
2022-10-08T13:47:32.899Z,31.08
2022-10-08T13:51:29.892Z,29.69
2022-10-08T13:55:34.851Z,29.33
2022-10-08T13:59:31.830Z,28.96
2022-10-08T14:03:31.238Z,29.84
2022-10-08T14:07:32.918Z,29.71
2022-10-08T14:11:31.141Z,30.74
2022-10-08T14:15:28.156Z,30.68
2022-10-08T14:19:25.121Z,30.26
2022-10-08T14:23:22.268Z,28.62
2022-10-08T14:27:19.334Z,27.79
2022-10-08T14:31:16.402Z,27.57
2022-10-08T14:35:14.272Z,26.79
2022-10-08T14:39:11.529Z,27.94
2022-10-08T14:43:08.507Z,28.04
2022-10-08T14:47:05.559Z,27.82
2022-10-08T14:51:02.533Z,27.74
2022-10-08T14:54:59.502Z,28.38
2022-10-08T14:58:56.810Z,28.46
2022-10-08T15:02:53.803Z,30.14
2022-10-08T15:06:50.798Z,31.08
2022-10-08T15:10:47.885Z,29.94
2022-10-08T15:14:44.916Z,30.35
2022-10-08T15:18:41.959Z,29.67
2022-10-08T15:22:39.247Z,30.15
2022-10-08T15:26:36.402Z,29.91
2022-10-08T15:30:33.423Z,29.06
2022-10-08T15:34:30.542Z,29.07
2022-10-08T15:38:27.555Z,29.46
2022-10-08T15:42:24.508Z,29.84
2022-10-08T15:46:22.927Z,30.12
2022-10-08T15:50:20.011Z,30.59
2022-10-08T15:54:17.135Z,31.85
2022-10-08T15:58:32.592Z,32.68
2022-10-08T16:02:31.110Z,33.08
2022-10-08T16:06:33.844Z,35.12
2022-10-08T16:10:30.817Z,35.93
2022-10-08T16:14:27.936Z,37.51
2022-10-08T16:18:24.912Z,37.89
2022-10-08T16:22:21.928Z,39.75
2022-10-08T16:26:21.325Z,40.41
2022-10-08T16:30:18.329Z,41.57
2022-10-08T16:34:22.123Z,41.49
2022-10-08T16:38:19.931Z,41.77
2022-10-08T16:42:20.009Z,41.61
2022-10-08T16:46:27.357Z,42.11
2022-10-08T16:50:24.454Z,42.15
2022-10-08T16:54:21.956Z,42.42
2022-10-08T16:58:19.010Z,42.37
2022-10-08T17:02:16.133Z,43.20
2022-10-08T17:06:13.718Z,44.26
2022-10-08T17:10:11.264Z,44.37
2022-10-08T17:14:11.681Z,44.98
2022-10-08T17:18:09.014Z,44.77
2022-10-08T17:22:06.495Z,45.41
2022-10-08T17:26:10.056Z,46.55
2022-10-08T17:30:07.899Z,46.88
2022-10-08T17:34:05.942Z,47.44
2022-10-08T17:38:03.366Z,47.87
2022-10-08T17:42:04.819Z,48.99
2022-10-08T17:46:16.541Z,49.23
2022-10-08T17:50:14.210Z,48.60
2022-10-08T17:54:19.236Z,49.09
2022-10-08T17:58:16.243Z,48.87
2022-10-08T18:02:13.339Z,49.48
2022-10-08T18:06:12.047Z,49.59
2022-10-08T18:10:09.775Z,49.62
2022-10-08T18:14:08.254Z,50.47
2022-10-08T18:18:05.406Z,50.21
2022-10-08T18:22:02.494Z,50.75
2022-10-08T18:26:15.626Z,51.07
2022-10-08T18:30:13.206Z,51.62
2022-10-08T18:34:16.459Z,52.07
2022-10-08T18:38:13.576Z,52.93
2022-10-08T18:42:10.627Z,52.50
2022-10-08T18:46:10.836Z,52.82
2022-10-08T18:50:08.878Z,53.03
2022-10-08T18:54:07.962Z,53.57
2022-10-08T18:58:04.899Z,53.44
2022-10-08T19:02:02.029Z,53.84
2022-10-08T19:05:59.217Z,53.82
2022-10-08T19:09:56.728Z,54.18
2022-10-08T19:13:54.739Z,54.33
2022-10-08T19:17:51.749Z,54.58
2022-10-08T19:21:49.688Z,54.63
2022-10-08T19:25:47.018Z,55.08
2022-10-08T19:29:44.390Z,55.43
2022-10-08T19:33:41.719Z,55.20
2022-10-08T19:37:39.152Z,55.78
2022-10-08T19:41:39.193Z,55.97
2022-10-08T19:45:36.235Z,55.54
2022-10-08T19:49:33.485Z,55.80
2022-10-08T19:53:31.541Z,55.18
2022-10-08T19:57:28.773Z,55.58
2022-10-08T20:01:30.846Z,56.28
2022-10-08T20:05:28.302Z,56.09
2022-10-08T20:09:26.064Z,55.44
2022-10-08T20:13:23.316Z,55.57
2022-10-08T20:17:20.359Z,55.98
2022-10-08T20:21:18.737Z,56.31
2022-10-08T20:25:19.292Z,56.54
2022-10-08T20:29:21.458Z,55.95
2022-10-08T20:33:19.859Z,55.66
2022-10-08T20:37:17.057Z,55.88
2022-10-08T20:41:14.130Z,55.92
2022-10-08T20:45:12.140Z,56.22
2022-10-08T20:49:13.328Z,56.27
2022-10-08T20:53:10.905Z,56.19
2022-10-08T20:57:08.024Z,56.13
2022-10-08T21:01:15.927Z,55.59
2022-10-08T21:05:13.290Z,55.91
2022-10-08T21:09:11.627Z,55.96
2022-10-08T21:13:08.888Z,56.29
2022-10-08T21:17:05.837Z,56.06
2022-10-08T21:21:06.343Z,56.22
2022-10-08T21:25:03.434Z,56.31
2022-10-08T21:29:03.703Z,56.72
2022-10-08T21:33:00.834Z,56.81
2022-10-08T21:36:57.806Z,57.59
2022-10-08T21:41:11.331Z,57.59
2022-10-08T21:45:08.955Z,57.36
2022-10-08T21:49:11.771Z,57.05
2022-10-08T21:53:08.744Z,57.01
2022-10-08T21:57:06.024Z,57.12
2022-10-08T22:01:03.399Z,57.12
2022-10-08T22:05:00.474Z,57.58
2022-10-08T22:08:58.897Z,57.16
2022-10-08T22:12:55.927Z,57.68
2022-10-08T22:16:53.410Z,57.93
2022-10-08T22:20:51.872Z,57.63
2022-10-08T22:24:48.885Z,57.97
2022-10-08T22:28:46.579Z,58.07
2022-10-08T22:32:43.590Z,58.42
2022-10-08T22:36:44.120Z,57.89
2022-10-08T22:40:41.086Z,58.44
2022-10-08T22:44:38.054Z,58.92
2022-10-08T22:48:35.432Z,58.51
2022-10-08T22:52:32.386Z,58.19
2022-10-08T22:56:31.114Z,58.19
2022-10-08T23:00:28.054Z,58.11
2022-10-08T23:04:25.838Z,57.63
2022-10-08T23:08:22.788Z,57.73
2022-10-08T23:12:19.879Z,57.63
2022-10-08T23:16:17.192Z,56.82
2022-10-08T23:20:14.422Z,57.29
2022-10-08T23:24:11.401Z,57.90
2022-10-08T23:28:08.400Z,57.24
2022-10-08T23:32:05.510Z,57.04
2022-10-08T23:36:02.635Z,57.09
2022-10-08T23:39:59.624Z,57.74
2022-10-08T23:43:58.345Z,57.50
2022-10-08T23:47:55.388Z,57.89
2022-10-08T23:51:52.404Z,57.61
2022-10-08T23:55:49.735Z,56.98
2022-10-08T23:59:47.346Z,57.25
